sensor_id;sensor_type;location;lat;lon;timestamp;pressure;altitude;pressure_sealevel;temperature;humidity
13033;BME280;6583;42.632;23.298;2023-08-20T00:00:29;69508.88;;;-146.40;47.64
13033;BME280;6583;42.632;23.298;2023-08-20T00:02:59;69492.69;;;-146.40;47.58
13033;BME280;6583;42.632;23.298;2023-08-20T00:05:28;69488.66;;;-146.40;46.85
13033;BME280;6583;42.632;23.298;2023-08-20T00:07:55;69472.47;;;-146.40;46.85
13033;BME280;6583;42.632;23.298;2023-08-20T00:10:23;69474.50;;;-146.40;46.74
13033;BME280;6583;42.632;23.298;2023-08-20T00:12:50;69466.41;;;-146.40;46.31
13033;BME280;6583;42.632;23.298;2023-08-20T00:15:16;69446.19;;;-146.40;46.02
13033;BME280;6583;42.632;23.298;2023-08-20T00:17:45;69434.03;;;-146.40;46.16
13033;BME280;6583;42.632;23.298;2023-08-20T00:20:14;69430.00;;;-146.40;45.84
13033;BME280;6583;42.632;23.298;2023-08-20T00:22:42;69425.94;;;-146.40;45.82
13033;BME280;6583;42.632;23.298;2023-08-20T00:25:11;69415.84;;;-146.40;45.44
13033;BME280;6583;42.632;23.298;2023-08-20T00:27:40;69421.91;;;-146.40;45.33
13033;BME280;6583;42.632;23.298;2023-08-20T00:30:07;69405.72;;;-146.40;45.54
13033;BME280;6583;42.632;23.298;2023-08-20T00:32:34;69397.63;;;-146.40;45.26
13033;BME280;6583;42.632;23.298;2023-08-20T00:35:01;69387.53;;;-146.40;45.07
13033;BME280;6583;42.632;23.298;2023-08-20T00:37:29;69389.53;;;-146.40;45.17
13033;BME280;6583;42.632;23.298;2023-08-20T00:39:56;69381.44;;;-146.40;45.13
13033;BME280;6583;42.632;23.298;2023-08-20T00:42:23;69375.38;;;-146.40;45.53
13033;BME280;6583;42.632;23.298;2023-08-20T00:44:52;69375.38;;;-146.40;44.92
13033;BME280;6583;42.632;23.298;2023-08-20T00:47:19;69379.44;;;-146.40;45.23
13033;BME280;6583;42.632;23.298;2023-08-20T00:49:47;69385.50;;;-146.40;44.88
13033;BME280;6583;42.632;23.298;2023-08-20T00:52:16;69375.38;;;-146.40;45.54
13033;BME280;6583;42.632;23.298;2023-08-20T00:54:44;69377.41;;;-146.40;45.67
13033;BME280;6583;42.632;23.298;2023-08-20T00:57:13;69379.44;;;-146.40;45.42
13033;BME280;6583;42.632;23.298;2023-08-20T00:59:40;69385.50;;;-146.40;45.22
13033;BME280;6583;42.632;23.298;2023-08-20T01:02:08;69387.53;;;-146.40;45.58
13033;BME280;6583;42.632;23.298;2023-08-20T01:04:35;69389.53;;;-146.40;45.66
13033;BME280;6583;42.632;23.298;2023-08-20T01:07:07;69393.59;;;-146.40;45.68
13033;BME280;6583;42.632;23.298;2023-08-20T01:09:45;69391.56;;;-146.40;45.70
13033;BME280;6583;42.632;23.298;2023-08-20T01:12:14;69393.59;;;-146.40;45.46
13033;BME280;6583;42.632;23.298;2023-08-20T01:14:42;69389.53;;;-146.40;45.36
13033;BME280;6583;42.632;23.298;2023-08-20T01:17:10;69393.59;;;-146.40;45.67
13033;BME280;6583;42.632;23.298;2023-08-20T01:19:37;69393.59;;;-146.40;45.67
13033;BME280;6583;42.632;23.298;2023-08-20T01:22:21;69385.50;;;-146.40;45.88
13033;BME280;6583;42.632;23.298;2023-08-20T01:24:58;69381.44;;;-146.40;45.47
13033;BME280;6583;42.632;23.298;2023-08-20T01:27:39;69381.44;;;-146.40;45.74
13033;BME280;6583;42.632;23.298;2023-08-20T01:30:12;69373.38;;;-146.40;45.39
13033;BME280;6583;42.632;23.298;2023-08-20T01:32:39;69369.31;;;-146.40;45.30
13033;BME280;6583;42.632;23.298;2023-08-20T01:35:08;69369.31;;;-146.40;45.84
13033;BME280;6583;42.632;23.298;2023-08-20T01:37:38;69369.31;;;-146.40;45.68
13033;BME280;6583;42.632;23.298;2023-08-20T01:40:07;69361.22;;;-146.40;45.57
13033;BME280;6583;42.632;23.298;2023-08-20T01:42:35;69357.19;;;-146.40;45.42
13033;BME280;6583;42.632;23.298;2023-08-20T01:45:05;69363.25;;;-146.40;46.00
13033;BME280;6583;42.632;23.298;2023-08-20T01:47:33;69361.22;;;-146.40;45.77
13033;BME280;6583;42.632;23.298;2023-08-20T01:50:00;69353.13;;;-146.40;45.43
13033;BME280;6583;42.632;23.298;2023-08-20T01:52:27;69365.28;;;-146.40;44.99
13033;BME280;6583;42.632;23.298;2023-08-20T01:54:55;69373.38;;;-146.40;45.32
13033;BME280;6583;42.632;23.298;2023-08-20T01:57:21;69389.53;;;-146.40;45.49
13033;BME280;6583;42.632;23.298;2023-08-20T01:59:50;69417.84;;;-146.40;45.96
13033;BME280;6583;42.632;23.298;2023-08-20T02:02:17;69430.00;;;-146.40;46.57
13033;BME280;6583;42.632;23.298;2023-08-20T02:04:45;69432.03;;;-146.40;46.55
13033;BME280;6583;42.632;23.298;2023-08-20T02:07:11;69419.88;;;-146.40;46.61
13033;BME280;6583;42.632;23.298;2023-08-20T02:09:38;69417.84;;;-146.40;46.88
13033;BME280;6583;42.632;23.298;2023-08-20T02:12:05;69409.78;;;-146.40;46.87
13033;BME280;6583;42.632;23.298;2023-08-20T02:14:34;69409.78;;;-146.40;47.00
13033;BME280;6583;42.632;23.298;2023-08-20T02:17:01;69409.78;;;-146.40;46.90
13033;BME280;6583;42.632;23.298;2023-08-20T02:19:27;69413.81;;;-146.40;46.90
13033;BME280;6583;42.632;23.298;2023-08-20T02:21:55;69413.81;;;-146.40;47.08
13033;BME280;6583;42.632;23.298;2023-08-20T02:24:22;69417.84;;;-146.40;47.25
13033;BME280;6583;42.632;23.298;2023-08-20T02:26:49;69425.94;;;-146.40;47.92
13033;BME280;6583;42.632;23.298;2023-08-20T02:29:16;69430.00;;;-146.40;47.84
13033;BME280;6583;42.632;23.298;2023-08-20T02:31:42;69425.94;;;-146.40;47.71
13033;BME280;6583;42.632;23.298;2023-08-20T02:34:09;69423.94;;;-146.40;47.98
13033;BME280;6583;42.632;23.298;2023-08-20T02:36:36;69421.91;;;-146.40;47.81
13033;BME280;6583;42.632;23.298;2023-08-20T02:39:04;69417.84;;;-146.40;47.64
13033;BME280;6583;42.632;23.298;2023-08-20T02:41:33;69419.88;;;-146.40;47.81
13033;BME280;6583;42.632;23.298;2023-08-20T02:43:59;69411.78;;;-146.40;48.02
13033;BME280;6583;42.632;23.298;2023-08-20T02:46:26;69417.84;;;-146.40;48.27
13033;BME280;6583;42.632;23.298;2023-08-20T02:48:53;69415.84;;;-146.40;47.41
13033;BME280;6583;42.632;23.298;2023-08-20T02:51:19;69413.81;;;-146.40;47.62
13033;BME280;6583;42.632;23.298;2023-08-20T02:53:46;69413.81;;;-146.40;47.66
13033;BME280;6583;42.632;23.298;2023-08-20T02:56:14;69419.88;;;-146.40;47.96
13033;BME280;6583;42.632;23.298;2023-08-20T02:58:41;69425.94;;;-146.40;47.84
13033;BME280;6583;42.632;23.298;2023-08-20T03:01:17;69425.94;;;-146.40;46.76
13033;BME280;6583;42.632;23.298;2023-08-20T03:03:44;69419.88;;;-146.40;47.73
13033;BME280;6583;42.632;23.298;2023-08-20T03:06:11;69430.00;;;-146.40;47.68
13033;BME280;6583;42.632;23.298;2023-08-20T03:08:37;69432.03;;;-146.40;48.15
13033;BME280;6583;42.632;23.298;2023-08-20T03:11:04;69438.09;;;-146.40;47.82
13033;BME280;6583;42.632;23.298;2023-08-20T03:13:32;69432.03;;;-146.40;47.50
13033;BME280;6583;42.632;23.298;2023-08-20T03:15:59;69432.03;;;-146.40;49.20
13033;BME280;6583;42.632;23.298;2023-08-20T03:18:26;69446.19;;;-146.40;50.23
13033;BME280;6583;42.632;23.298;2023-08-20T03:20:54;69464.38;;;-146.40;51.30
13033;BME280;6583;42.632;23.298;2023-08-20T03:23:20;69490.66;;;-146.40;52.04
13033;BME280;6583;42.632;23.298;2023-08-20T03:25:47;69492.69;;;-146.40;52.52
13033;BME280;6583;42.632;23.298;2023-08-20T03:28:14;69492.69;;;-146.40;52.88
13033;BME280;6583;42.632;23.298;2023-08-20T03:30:42;69506.84;;;-146.40;53.39
13033;BME280;6583;42.632;23.298;2023-08-20T03:33:09;69514.94;;;-146.40;53.59
13033;BME280;6583;42.632;23.298;2023-08-20T03:35:35;69514.94;;;-146.40;53.27
13033;BME280;6583;42.632;23.298;2023-08-20T03:38:02;69514.94;;;-146.40;53.92
13033;BME280;6583;42.632;23.298;2023-08-20T03:40:29;69508.88;;;-146.40;52.31
13033;BME280;6583;42.632;23.298;2023-08-20T03:42:55;69508.88;;;-146.40;52.66
13033;BME280;6583;42.632;23.298;2023-08-20T03:45:22;69508.88;;;-146.40;53.01
13033;BME280;6583;42.632;23.298;2023-08-20T03:47:50;69498.75;;;-146.40;50.82
13033;BME280;6583;42.632;23.298;2023-08-20T03:50:17;69498.75;;;-146.40;50.69
13033;BME280;6583;42.632;23.298;2023-08-20T03:52:43;69490.66;;;-146.40;50.11
13033;BME280;6583;42.632;23.298;2023-08-20T03:55:10;69482.59;;;-146.40;49.62
13033;BME280;6583;42.632;23.298;2023-08-20T03:57:37;69476.50;;;-146.40;50.56
13033;BME280;6583;42.632;23.298;2023-08-20T04:00:04;69470.44;;;-146.40;51.68
13033;BME280;6583;42.632;23.298;2023-08-20T04:02:34;69466.41;;;-146.40;49.71
13033;BME280;6583;42.632;23.298;2023-08-20T04:05:02;69466.41;;;-146.40;48.92
13033;BME280;6583;42.632;23.298;2023-08-20T04:07:29;69464.38;;;-146.40;50.07
13033;BME280;6583;42.632;23.298;2023-08-20T04:09:56;69462.34;;;-146.40;49.48
13033;BME280;6583;42.632;23.298;2023-08-20T04:12:23;69466.41;;;-146.40;50.62
13033;BME280;6583;42.632;23.298;2023-08-20T04:14:49;69466.41;;;-146.40;49.63
13033;BME280;6583;42.632;23.298;2023-08-20T04:17:16;69470.44;;;-146.40;49.91
13033;BME280;6583;42.632;23.298;2023-08-20T04:19:43;69466.41;;;-146.40;51.12
13033;BME280;6583;42.632;23.298;2023-08-20T04:22:11;69470.44;;;-146.40;50.23
13033;BME280;6583;42.632;23.298;2023-08-20T04:24:38;69470.44;;;-146.40;49.61
13033;BME280;6583;42.632;23.298;2023-08-20T04:27:05;69470.44;;;-146.40;50.03
13033;BME280;6583;42.632;23.298;2023-08-20T04:29:32;69464.38;;;-146.40;49.42
13033;BME280;6583;42.632;23.298;2023-08-20T04:31:59;69470.44;;;-146.40;49.91
13033;BME280;6583;42.632;23.298;2023-08-20T04:34:26;69468.44;;;-146.40;50.02
13033;BME280;6583;42.632;23.298;2023-08-20T04:36:52;69468.44;;;-146.40;49.92
13033;BME280;6583;42.632;23.298;2023-08-20T04:39:20;69462.34;;;-146.40;49.63
13033;BME280;6583;42.632;23.298;2023-08-20T04:41:47;69462.34;;;-146.40;48.68
13033;BME280;6583;42.632;23.298;2023-08-20T04:44:14;69450.22;;;-146.40;48.65
13033;BME280;6583;42.632;23.298;2023-08-20T04:46:40;69442.13;;;-146.40;48.17
13033;BME280;6583;42.632;23.298;2023-08-20T04:49:07;69438.09;;;-146.40;47.79
13033;BME280;6583;42.632;23.298;2023-08-20T04:51:33;69438.09;;;-146.40;47.56
13033;BME280;6583;42.632;23.298;2023-08-20T04:54:00;69442.13;;;-146.40;47.39
13033;BME280;6583;42.632;23.298;2023-08-20T04:56:28;69434.03;;;-146.40;47.85
13033;BME280;6583;42.632;23.298;2023-08-20T04:58:55;69432.03;;;-146.40;47.59
13033;BME280;6583;42.632;23.298;2023-08-20T05:01:21;69417.84;;;-146.40;47.22
13033;BME280;6583;42.632;23.298;2023-08-20T05:03:48;69417.84;;;-146.40;47.25
13033;BME280;6583;42.632;23.298;2023-08-20T05:06:14;69401.69;;;-146.40;46.63
13033;BME280;6583;42.632;23.298;2023-08-20T05:08:42;69387.53;;;-146.40;46.75
13033;BME280;6583;42.632;23.298;2023-08-20T05:11:08;69373.38;;;-146.40;46.64
13033;BME280;6583;42.632;23.298;2023-08-20T05:13:36;69357.19;;;-146.40;45.53
13033;BME280;6583;42.632;23.298;2023-08-20T05:16:03;69349.09;;;-146.40;45.91
13033;BME280;6583;42.632;23.298;2023-08-20T05:18:30;69336.97;;;-146.40;46.14
13033;BME280;6583;42.632;23.298;2023-08-20T05:20:58;69324.81;;;-146.40;44.62
13033;BME280;6583;42.632;23.298;2023-08-20T05:23:25;69318.75;;;-146.40;45.19
13033;BME280;6583;42.632;23.298;2023-08-20T05:25:51;69310.66;;;-146.40;45.10
13033;BME280;6583;42.632;23.298;2023-08-20T05:28:18;69292.47;;;-146.40;45.23
13033;BME280;6583;42.632;23.298;2023-08-20T05:30:54;69290.44;;;-146.40;46.06
13033;BME280;6583;42.632;23.298;2023-08-20T05:33:21;69276.28;;;-146.40;46.86
13033;BME280;6583;42.632;23.298;2023-08-20T05:35:48;69266.16;;;-146.40;48.50
13033;BME280;6583;42.632;23.298;2023-08-20T05:38:14;69276.28;;;-146.40;45.94
13033;BME280;6583;42.632;23.298;2023-08-20T05:40:41;69278.31;;;-146.40;46.98
13033;BME280;6583;42.632;23.298;2023-08-20T05:43:08;69280.31;;;-146.40;47.59
13033;BME280;6583;42.632;23.298;2023-08-20T05:45:35;69280.31;;;-146.40;47.56
13033;BME280;6583;42.632;23.298;2023-08-20T05:48:03;69280.31;;;-146.40;47.72
13033;BME280;6583;42.632;23.298;2023-08-20T05:50:30;69270.22;;;-146.40;46.92
13033;BME280;6583;42.632;23.298;2023-08-20T05:52:57;69254.03;;;-146.40;47.44
13033;BME280;6583;42.632;23.298;2023-08-20T05:55:24;69241.91;;;-146.40;46.26
13033;BME280;6583;42.632;23.298;2023-08-20T05:57:50;69241.91;;;-146.40;46.15
13033;BME280;6583;42.632;23.298;2023-08-20T06:00:17;69250.00;;;-146.40;46.88
13033;BME280;6583;42.632;23.298;2023-08-20T06:02:44;69250.00;;;-146.40;45.63
13033;BME280;6583;42.632;23.298;2023-08-20T06:05:12;69247.97;;;-146.40;44.99
13033;BME280;6583;42.632;23.298;2023-08-20T06:07:38;69235.84;;;-146.40;46.17
13033;BME280;6583;42.632;23.298;2023-08-20T06:10:06;69219.66;;;-146.40;45.61
13033;BME280;6583;42.632;23.298;2023-08-20T06:12:33;69207.53;;;-146.40;44.00
13033;BME280;6583;42.632;23.298;2023-08-20T06:15:00;69191.34;;;-146.40;41.93
13033;BME280;6583;42.632;23.298;2023-08-20T06:17:27;69177.19;;;-146.40;44.11
13033;BME280;6583;42.632;23.298;2023-08-20T06:19:53;69177.19;;;-146.40;42.90
13033;BME280;6583;42.632;23.298;2023-08-20T06:22:21;69171.13;;;-146.40;43.83
13033;BME280;6583;42.632;23.298;2023-08-20T06:24:48;69171.13;;;-146.40;42.23
13033;BME280;6583;42.632;23.298;2023-08-20T06:27:14;69169.09;;;-146.40;42.75
13033;BME280;6583;42.632;23.298;2023-08-20T06:29:41;69156.97;;;-146.40;42.04
13033;BME280;6583;42.632;23.298;2023-08-20T06:32:08;69144.81;;;-146.40;42.63
13033;BME280;6583;42.632;23.298;2023-08-20T06:34:35;69130.66;;;-146.40;41.62
13033;BME280;6583;42.632;23.298;2023-08-20T06:37:02;69118.53;;;-146.40;42.07
13033;BME280;6583;42.632;23.298;2023-08-20T06:39:30;69110.44;;;-146.40;40.42
13033;BME280;6583;42.632;23.298;2023-08-20T06:41:56;69110.44;;;-146.40;41.16
13033;BME280;6583;42.632;23.298;2023-08-20T06:44:23;69110.44;;;-146.40;40.52
13033;BME280;6583;42.632;23.298;2023-08-20T06:46:50;69108.41;;;-146.40;40.40
13033;BME280;6583;42.632;23.298;2023-08-20T06:49:16;69108.41;;;-146.40;40.73
13033;BME280;6583;42.632;23.298;2023-08-20T06:51:43;69114.50;;;-146.40;40.00
13033;BME280;6583;42.632;23.298;2023-08-20T06:54:10;69098.31;;;-146.40;41.21
13033;BME280;6583;42.632;23.298;2023-08-20T06:56:38;69086.19;;;-146.40;40.92
13033;BME280;6583;42.632;23.298;2023-08-20T06:59:04;69078.09;;;-146.40;39.21
13033;BME280;6583;42.632;23.298;2023-08-20T07:01:31;69074.03;;;-146.40;39.09
13033;BME280;6583;42.632;23.298;2023-08-20T07:03:58;69065.94;;;-146.40;39.90
13033;BME280;6583;42.632;23.298;2023-08-20T07:06:24;69053.81;;;-146.40;39.29
13033;BME280;6583;42.632;23.298;2023-08-20T07:08:51;69039.66;;;-146.40;39.34
13033;BME280;6583;42.632;23.298;2023-08-20T07:11:18;69041.69;;;-146.40;39.01
13033;BME280;6583;42.632;23.298;2023-08-20T07:13:46;69031.56;;;-146.40;39.45
13033;BME280;6583;42.632;23.298;2023-08-20T07:16:12;69037.63;;;-146.40;38.40
13033;BME280;6583;42.632;23.298;2023-08-20T07:18:39;69037.63;;;-146.40;39.24
13033;BME280;6583;42.632;23.298;2023-08-20T07:21:05;69043.72;;;-146.40;39.91
13033;BME280;6583;42.632;23.298;2023-08-20T07:23:33;69017.41;;;-146.40;38.94
13033;BME280;6583;42.632;23.298;2023-08-20T07:26:06;69009.31;;;-146.40;39.13
13033;BME280;6583;42.632;23.298;2023-08-20T07:28:34;68991.13;;;-146.40;38.24
13033;BME280;6583;42.632;23.298;2023-08-20T07:31:19;68976.97;;;-146.40;38.09
13033;BME280;6583;42.632;23.298;2023-08-20T07:33:46;68972.94;;;-146.40;37.75
13033;BME280;6583;42.632;23.298;2023-08-20T07:36:13;68968.88;;;-146.40;37.67
13033;BME280;6583;42.632;23.298;2023-08-20T07:38:40;68993.16;;;-146.40;37.65
13033;BME280;6583;42.632;23.298;2023-08-20T07:41:08;68997.19;;;-146.40;37.78
13033;BME280;6583;42.632;23.298;2023-08-20T07:43:34;69007.31;;;-146.40;37.62
13033;BME280;6583;42.632;23.298;2023-08-20T07:46:01;69013.38;;;-146.40;37.84
13033;BME280;6583;42.632;23.298;2023-08-20T07:48:29;69029.56;;;-146.40;37.89
13033;BME280;6583;42.632;23.298;2023-08-20T07:50:56;69033.59;;;-146.40;38.56
13033;BME280;6583;42.632;23.298;2023-08-20T07:53:22;69037.63;;;-146.40;38.41
13033;BME280;6583;42.632;23.298;2023-08-20T07:55:49;69029.56;;;-146.40;38.28
13033;BME280;6583;42.632;23.298;2023-08-20T07:58:15;69017.41;;;-146.40;38.34
13033;BME280;6583;42.632;23.298;2023-08-20T08:00:42;69009.31;;;-146.40;38.28
13033;BME280;6583;42.632;23.298;2023-08-20T08:03:09;68997.19;;;-146.40;37.22
13033;BME280;6583;42.632;23.298;2023-08-20T08:05:37;68989.09;;;-146.40;37.36
13033;BME280;6583;42.632;23.298;2023-08-20T08:08:04;68972.94;;;-146.40;37.07
13033;BME280;6583;42.632;23.298;2023-08-20T08:10:31;68960.78;;;-146.40;37.28
13033;BME280;6583;42.632;23.298;2023-08-20T08:12:57;68934.50;;;-146.40;37.53
13033;BME280;6583;42.632;23.298;2023-08-20T08:15:24;68930.47;;;-146.40;36.48
13033;BME280;6583;42.632;23.298;2023-08-20T08:17:51;68932.47;;;-146.40;35.56
13033;BME280;6583;42.632;23.298;2023-08-20T08:20:17;68956.75;;;-146.40;35.16
13033;BME280;6583;42.632;23.298;2023-08-20T08:22:45;68964.84;;;-146.40;35.49
13033;BME280;6583;42.632;23.298;2023-08-20T08:25:12;68960.78;;;-146.40;35.82
13033;BME280;6583;42.632;23.298;2023-08-20T08:27:39;68952.69;;;-146.40;35.31
13033;BME280;6583;42.632;23.298;2023-08-20T08:30:06;68944.63;;;-146.40;35.28
13033;BME280;6583;42.632;23.298;2023-08-20T08:32:33;68940.56;;;-146.40;34.83
13033;BME280;6583;42.632;23.298;2023-08-20T08:35:00;68930.47;;;-146.40;34.28
13033;BME280;6583;42.632;23.298;2023-08-20T08:37:26;68920.34;;;-146.40;34.58
13033;BME280;6583;42.632;23.298;2023-08-20T08:39:54;68914.28;;;-146.40;34.50
13033;BME280;6583;42.632;23.298;2023-08-20T08:42:22;68904.16;;;-146.40;34.44
13033;BME280;6583;42.632;23.298;2023-08-20T08:44:50;68894.06;;;-146.40;34.14
13033;BME280;6583;42.632;23.298;2023-08-20T08:47:17;68888.00;;;-146.40;33.69
13033;BME280;6583;42.632;23.298;2023-08-20T08:49:44;68875.84;;;-146.40;33.67
13033;BME280;6583;42.632;23.298;2023-08-20T08:52:12;68863.72;;;-146.40;33.09
13033;BME280;6583;42.632;23.298;2023-08-20T08:54:39;68857.66;;;-146.40;32.88
13033;BME280;6583;42.632;23.298;2023-08-20T08:57:07;68853.63;;;-146.40;32.56
13033;BME280;6583;42.632;23.298;2023-08-20T08:59:34;68843.50;;;-146.40;32.59
13033;BME280;6583;42.632;23.298;2023-08-20T09:02:00;68847.53;;;-146.40;30.90
13033;BME280;6583;42.632;23.298;2023-08-20T09:04:27;68841.47;;;-146.40;32.27
13033;BME280;6583;42.632;23.298;2023-08-20T09:06:55;68849.56;;;-146.40;32.92
13033;BME280;6583;42.632;23.298;2023-08-20T09:09:22;68847.53;;;-146.40;33.08
13033;BME280;6583;42.632;23.298;2023-08-20T09:11:49;68847.53;;;-146.40;32.65
13033;BME280;6583;42.632;23.298;2023-08-20T09:14:24;68847.53;;;-146.40;33.38
13033;BME280;6583;42.632;23.298;2023-08-20T09:16:54;68835.41;;;-146.40;33.27
13033;BME280;6583;42.632;23.298;2023-08-20T09:19:22;68815.19;;;-146.40;32.31
13033;BME280;6583;42.632;23.298;2023-08-20T09:21:50;68794.97;;;-146.40;32.02
13033;BME280;6583;42.632;23.298;2023-08-20T09:24:26;68778.78;;;-146.40;31.83
13033;BME280;6583;42.632;23.298;2023-08-20T09:26:57;68764.63;;;-146.40;30.86
13033;BME280;6583;42.632;23.298;2023-08-20T09:29:25;68744.41;;;-146.40;31.55
13033;BME280;6583;42.632;23.298;2023-08-20T09:32:00;68730.25;;;-146.40;31.62
13033;BME280;6583;42.632;23.298;2023-08-20T09:34:36;68714.09;;;-146.40;31.39
13033;BME280;6583;42.632;23.298;2023-08-20T09:37:03;68699.94;;;-146.40;31.31
13033;BME280;6583;42.632;23.298;2023-08-20T09:39:29;68716.09;;;-146.40;30.75
13033;BME280;6583;42.632;23.298;2023-08-20T09:41:57;68718.13;;;-146.40;30.50
13033;BME280;6583;42.632;23.298;2023-08-20T09:44:31;68710.03;;;-146.40;31.12
13033;BME280;6583;42.632;23.298;2023-08-20T09:46:59;68703.97;;;-146.40;30.42
13033;BME280;6583;42.632;23.298;2023-08-20T09:49:29;68701.94;;;-146.40;30.42
13033;BME280;6583;42.632;23.298;2023-08-20T09:51:56;68703.97;;;-146.40;31.16
13033;BME280;6583;42.632;23.298;2023-08-20T09:54:28;68720.16;;;-146.40;29.71
13033;BME280;6583;42.632;23.298;2023-08-20T09:57:01;68710.03;;;-146.40;29.86
13033;BME280;6583;42.632;23.298;2023-08-20T09:59:33;68710.03;;;-146.40;29.56
13033;BME280;6583;42.632;23.298;2023-08-20T10:02:01;68706.00;;;-146.40;29.33
13033;BME280;6583;42.632;23.298;2023-08-20T10:04:28;68710.03;;;-146.40;29.42
13033;BME280;6583;42.632;23.298;2023-08-20T10:06:57;68710.03;;;-146.40;29.32
13033;BME280;6583;42.632;23.298;2023-08-20T10:09:25;68710.03;;;-146.40;28.79
13033;BME280;6583;42.632;23.298;2023-08-20T10:11:52;68701.94;;;-146.40;29.20
13033;BME280;6583;42.632;23.298;2023-08-20T10:14:19;68699.94;;;-146.40;28.91
13033;BME280;6583;42.632;23.298;2023-08-20T10:16:47;68695.88;;;-146.40;29.19
13033;BME280;6583;42.632;23.298;2023-08-20T10:19:15;68681.72;;;-146.40;28.93
13033;BME280;6583;42.632;23.298;2023-08-20T10:21:44;68683.75;;;-146.40;28.93
13033;BME280;6583;42.632;23.298;2023-08-20T10:24:16;68669.59;;;-146.40;28.91
13033;BME280;6583;42.632;23.298;2023-08-20T10:26:45;68669.59;;;-146.40;28.68
13033;BME280;6583;42.632;23.298;2023-08-20T10:29:36;68667.56;;;-146.40;28.72
13033;BME280;6583;42.632;23.298;2023-08-20T10:32:06;68665.56;;;-146.40;28.25
13033;BME280;6583;42.632;23.298;2023-08-20T10:34:36;68643.31;;;-146.40;28.36
13033;BME280;6583;42.632;23.298;2023-08-20T10:37:08;68661.50;;;-146.40;29.18
13033;BME280;6583;42.632;23.298;2023-08-20T10:39:35;68663.53;;;-146.40;29.01
13033;BME280;6583;42.632;23.298;2023-08-20T10:42:09;68651.41;;;-146.40;29.56
13033;BME280;6583;42.632;23.298;2023-08-20T10:44:58;68637.25;;;-146.40;29.31
13033;BME280;6583;42.632;23.298;2023-08-20T10:47:35;68633.19;;;-146.40;29.47
13033;BME280;6583;42.632;23.298;2023-08-20T10:50:02;68643.31;;;-146.40;28.65
13033;BME280;6583;42.632;23.298;2023-08-20T10:52:29;68651.41;;;-146.40;28.91
13033;BME280;6583;42.632;23.298;2023-08-20T10:54:56;68645.34;;;-146.40;29.28
13033;BME280;6583;42.632;23.298;2023-08-20T10:57:33;68661.50;;;-146.40;29.62
13033;BME280;6583;42.632;23.298;2023-08-20T11:00:02;68657.47;;;-146.40;29.70
13033;BME280;6583;42.632;23.298;2023-08-20T11:02:33;68663.53;;;-146.40;29.48
13033;BME280;6583;42.632;23.298;2023-08-20T11:04:59;68677.69;;;-146.40;30.38
13033;BME280;6583;42.632;23.298;2023-08-20T11:07:27;68665.56;;;-146.40;30.19
13033;BME280;6583;42.632;23.298;2023-08-20T11:09:54;68659.47;;;-146.40;30.36
13033;BME280;6583;42.632;23.298;2023-08-20T11:12:21;68653.41;;;-146.40;31.00
13033;BME280;6583;42.632;23.298;2023-08-20T11:14:48;68633.19;;;-146.40;30.75
13033;BME280;6583;42.632;23.298;2023-08-20T11:17:15;68615.00;;;-146.40;30.27
13033;BME280;6583;42.632;23.298;2023-08-20T11:19:43;68617.03;;;-146.40;30.21
13033;BME280;6583;42.632;23.298;2023-08-20T11:22:09;68610.94;;;-146.40;30.07
13033;BME280;6583;42.632;23.298;2023-08-20T11:24:38;68612.97;;;-146.40;30.02
13033;BME280;6583;42.632;23.298;2023-08-20T11:27:05;68608.94;;;-146.40;30.25
13033;BME280;6583;42.632;23.298;2023-08-20T11:29:32;68612.97;;;-146.40;29.93
13033;BME280;6583;42.632;23.298;2023-08-20T11:31:59;68617.03;;;-146.40;30.05
13033;BME280;6583;42.632;23.298;2023-08-20T11:34:28;68625.09;;;-146.40;30.26
13033;BME280;6583;42.632;23.298;2023-08-20T11:36:56;68612.97;;;-146.40;30.46
13033;BME280;6583;42.632;23.298;2023-08-20T11:39:23;68621.06;;;-146.40;29.73
13033;BME280;6583;42.632;23.298;2023-08-20T11:41:51;68623.09;;;-146.40;30.25
13033;BME280;6583;42.632;23.298;2023-08-20T11:44:22;68621.06;;;-146.40;30.01
13033;BME280;6583;42.632;23.298;2023-08-20T11:46:48;68627.13;;;-146.40;30.23
13033;BME280;6583;42.632;23.298;2023-08-20T11:49:15;68625.09;;;-146.40;30.06
13033;BME280;6583;42.632;23.298;2023-08-20T11:51:44;68645.34;;;-146.40;30.09
13033;BME280;6583;42.632;23.298;2023-08-20T11:54:14;68641.28;;;-146.40;30.50
13033;BME280;6583;42.632;23.298;2023-08-20T11:56:43;68637.25;;;-146.40;31.00
13033;BME280;6583;42.632;23.298;2023-08-20T11:59:11;68633.19;;;-146.40;30.40
13033;BME280;6583;42.632;23.298;2023-08-20T12:01:38;68637.25;;;-146.40;30.06
13033;BME280;6583;42.632;23.298;2023-08-20T12:04:05;68631.19;;;-146.40;30.56
13033;BME280;6583;42.632;23.298;2023-08-20T12:06:33;68629.16;;;-146.40;30.49
13033;BME280;6583;42.632;23.298;2023-08-20T12:09:00;68621.06;;;-146.40;30.47
13033;BME280;6583;42.632;23.298;2023-08-20T12:11:30;68617.03;;;-146.40;30.12
13033;BME280;6583;42.632;23.298;2023-08-20T12:13:58;68608.94;;;-146.40;29.87
13033;BME280;6583;42.632;23.298;2023-08-20T12:16:25;68604.88;;;-146.40;30.49
13033;BME280;6583;42.632;23.298;2023-08-20T12:18:52;68600.84;;;-146.40;30.33
13033;BME280;6583;42.632;23.298;2023-08-20T12:21:19;68592.75;;;-146.40;31.04
13033;BME280;6583;42.632;23.298;2023-08-20T12:23:45;68588.72;;;-146.40;30.86
13033;BME280;6583;42.632;23.298;2023-08-20T12:26:12;68584.66;;;-146.40;30.68
13033;BME280;6583;42.632;23.298;2023-08-20T12:28:40;68572.53;;;-146.40;30.36
13033;BME280;6583;42.632;23.298;2023-08-20T12:31:07;68576.56;;;-146.40;30.45
13033;BME280;6583;42.632;23.298;2023-08-20T12:33:34;68576.56;;;-146.40;30.48
13033;BME280;6583;42.632;23.298;2023-08-20T12:36:01;68576.56;;;-146.40;30.30
13033;BME280;6583;42.632;23.298;2023-08-20T12:38:28;68576.56;;;-146.40;30.45
13033;BME280;6583;42.632;23.298;2023-08-20T12:40:59;68574.56;;;-146.40;30.03
13033;BME280;6583;42.632;23.298;2023-08-20T12:43:25;68572.53;;;-146.40;30.26